createdAt,value
2022-08-05T00:01:54.855Z,101583.81
2022-08-05T00:04:36.119Z,101544.47
2022-08-05T00:07:27.114Z,101580.53
2022-08-05T00:09:52.754Z,101585.03
2022-08-05T00:12:24.345Z,101574.69
2022-08-05T00:14:52.701Z,101583.44
2022-08-05T00:17:21.864Z,101548.59
2022-08-05T00:20:01.875Z,101584.53
2022-08-05T00:22:31.349Z,101588.50
2022-08-05T00:24:59.571Z,101587.47
2022-08-05T00:27:36.315Z,101590.63
2022-08-05T00:30:11.340Z,101565.50
2022-08-05T00:32:40.488Z,101569.16
2022-08-05T00:35:10.221Z,101584.03
2022-08-05T00:40:27.149Z,101584.66
2022-08-05T00:43:00.943Z,101570.78
2022-08-05T00:45:42.866Z,101579.69
2022-08-05T00:48:13.871Z,101590.06
2022-08-05T00:50:46.517Z,101594.72
2022-08-05T00:53:44.862Z,101608.06
2022-08-05T00:56:05.631Z,101618.91
2022-08-05T00:58:38.867Z,101601.75
2022-08-05T01:01:12.349Z,101597.53
2022-08-05T01:03:41.534Z,101596.88
2022-08-05T01:06:15.291Z,101618.97
2022-08-05T01:08:44.801Z,101625.03
2022-08-05T01:11:22.237Z,101605.28
2022-08-05T01:14:15.507Z,101619.22
2022-08-05T01:16:52.423Z,101602.44
2022-08-05T01:20:01.137Z,101640.78
2022-08-05T01:22:43.291Z,101640.97
2022-08-05T01:25:53.326Z,101630.44
2022-08-05T01:28:34.157Z,101643.00
2022-08-05T01:31:11.566Z,101643.72
2022-08-05T01:33:49.175Z,101612.03
2022-08-05T01:36:27.908Z,101635.72
2022-08-05T01:39:00.219Z,101608.22
2022-08-05T01:41:35.662Z,101618.31
2022-08-05T01:44:09.926Z,101622.81
2022-08-05T01:46:46.302Z,101624.50
2022-08-05T01:49:24.087Z,101629.75
2022-08-05T01:52:01.010Z,101636.84
2022-08-05T01:54:34.384Z,101607.94
2022-08-05T01:58:13.647Z,101602.50
2022-08-05T02:00:12.649Z,101576.97
2022-08-05T02:02:54.325Z,101590.06
2022-08-05T02:05:28.565Z,101599.66
2022-08-05T02:08:00.242Z,101611.53
2022-08-05T02:10:35.984Z,101593.34
2022-08-05T02:13:15.908Z,101608.28
2022-08-05T02:15:51.849Z,101619.88
2022-08-05T02:18:30.926Z,101607.34
2022-08-05T02:21:14.795Z,101598.50
2022-08-05T02:23:49.122Z,101587.78
2022-08-05T02:26:26.626Z,101601.13
2022-08-05T02:28:58.302Z,101614.75
2022-08-05T02:31:34.863Z,101591.88
2022-08-05T02:34:09.886Z,101610.97
2022-08-05T02:36:43.773Z,101584.75
2022-08-05T02:39:14.080Z,101619.03
2022-08-05T02:42:01.347Z,101628.88
2022-08-05T02:44:33.085Z,101613.97
2022-08-05T02:47:06.269Z,101615.03
2022-08-05T02:49:40.569Z,101629.84
2022-08-05T02:52:29.935Z,101641.31
2022-08-05T02:55:01.890Z,101627.03
2022-08-05T02:58:11.015Z,101628.69
2022-08-05T03:00:25.489Z,101598.69
2022-08-05T03:02:59.713Z,101585.41
2022-08-05T03:06:54.540Z,101618.03
2022-08-05T03:08:26.930Z,101625.25
2022-08-05T03:11:41.169Z,101605.97
2022-08-05T03:13:52.142Z,101581.19
2022-08-05T03:16:32.137Z,101648.00
2022-08-05T03:19:12.507Z,101649.88
2022-08-05T03:21:48.681Z,101654.22
2022-08-05T03:24:27.562Z,101651.63
2022-08-05T03:26:59.638Z,101654.47
2022-08-05T03:29:45.721Z,101645.69
2022-08-05T03:32:19.512Z,101636.09
2022-08-05T03:34:50.952Z,101652.84
2022-08-05T03:37:22.570Z,101631.81
2022-08-05T03:39:59.198Z,101657.41
2022-08-05T03:42:32.394Z,101654.66
2022-08-05T03:45:21.134Z,101634.22
2022-08-05T03:47:50.372Z,101578.66
2022-08-05T03:50:21.314Z,101607.84
2022-08-05T03:55:50.443Z,101632.06
2022-08-05T03:56:10.514Z,101647.16
2022-08-05T03:58:45.552Z,101647.16
2022-08-05T04:01:16.326Z,101641.88
2022-08-05T04:04:05.483Z,101650.50
2022-08-05T04:06:47.751Z,101614.34
2022-08-05T04:09:25.924Z,101629.44
2022-08-05T04:11:56.572Z,101648.81
2022-08-05T04:14:29.403Z,101640.00
2022-08-05T04:17:00.940Z,101634.75
2022-08-05T04:19:31.906Z,101643.50
2022-08-05T04:22:08.863Z,101632.22
2022-08-05T04:24:44.563Z,101634.78
2022-08-05T04:27:33.185Z,101632.13
2022-08-05T04:30:11.989Z,101643.59
2022-08-05T04:32:40.353Z,101660.47
2022-08-05T04:35:19.344Z,101629.66
2022-08-05T04:38:01.349Z,101656.06
2022-08-05T04:40:35.433Z,101648.25
2022-08-05T04:43:04.151Z,101654.47
2022-08-05T04:45:48.777Z,101627.28
2022-08-05T04:48:27.035Z,101642.97
2022-08-05T04:51:02.753Z,101636.00
2022-08-05T04:53:40.222Z,101648.31
2022-08-05T04:56:32.912Z,101661.53
2022-08-05T04:58:58.415Z,101661.59
2022-08-05T05:02:05.676Z,101652.81
2022-08-05T05:04:15.411Z,101647.50
2022-08-05T05:06:49.355Z,101659.03
2022-08-05T05:09:22.053Z,101629.94
2022-08-05T05:11:55.672Z,101665.19
2022-08-05T05:14:31.234Z,101673.94
2022-08-05T05:17:00.787Z,101630.84
2022-08-05T05:19:37.146Z,101680.16
2022-08-05T05:22:23.818Z,101650.09
2022-08-05T05:24:57.409Z,101659.03
2022-08-05T05:27:44.375Z,101659.94
2022-08-05T05:30:29.226Z,101674.88
2022-08-05T05:33:09.121Z,101663.44
2022-08-05T05:35:46.867Z,101663.38
2022-08-05T05:38:22.568Z,101630.72
2022-08-05T05:40:57.372Z,101650.06
2022-08-05T05:43:54.626Z,101678.34
2022-08-05T05:46:17.638Z,101659.69
2022-08-05T05:48:48.977Z,101676.34
2022-08-05T05:51:22.539Z,101667.44
2022-08-05T05:53:57.828Z,101677.06
2022-08-05T05:56:33.697Z,101675.28
2022-08-05T05:59:05.891Z,101671.59
2022-08-05T06:01:38.075Z,101684.69
2022-08-05T06:04:11.753Z,101669.75
2022-08-05T06:06:42.820Z,101669.63
2022-08-05T06:09:17.667Z,101672.03
2022-08-05T06:12:02.118Z,101686.09
2022-08-05T06:14:31.566Z,101691.50
2022-08-05T06:17:02.153Z,101672.25
2022-08-05T06:19:56.523Z,101675.75
2022-08-05T06:22:33.706Z,101679.25
2022-08-05T06:25:25.180Z,101679.66
2022-08-05T06:28:10.932Z,101677.06
2022-08-05T06:30:41.444Z,101696.22
2022-08-05T06:33:10.860Z,101704.00
2022-08-05T06:36:08.008Z,101699.47
2022-08-05T06:38:36.627Z,101702.88
2022-08-05T06:41:07.745Z,101696.28
2022-08-05T06:43:57.808Z,101713.25
2022-08-05T06:46:29.673Z,101720.22
2022-08-05T06:48:59.213Z,101717.56
2022-08-05T06:51:30.007Z,101733.16
2022-08-05T06:53:59.940Z,101734.13
2022-08-05T06:56:28.880Z,101705.75
2022-08-05T06:58:58.692Z,101739.00
2022-08-05T07:01:32.308Z,101723.13
2022-08-05T07:04:03.161Z,101713.94
2022-08-05T07:06:31.762Z,101720.84
2022-08-05T07:09:03.856Z,101703.16
2022-08-05T07:11:37.296Z,101737.41
2022-08-05T07:14:30.313Z,101737.97
2022-08-05T07:18:00.541Z,101735.31
2022-08-05T07:20:34.139Z,101738.50
2022-08-05T07:22:39.352Z,101698.47
2022-08-05T07:25:54.273Z,101741.13
2022-08-05T07:28:07.279Z,101755.56
2022-08-05T07:30:41.419Z,101743.50
2022-08-05T07:33:15.931Z,101753.16
2022-08-05T07:36:02.607Z,101767.97
2022-08-05T07:38:43.131Z,101755.78
2022-08-05T07:42:09.119Z,101769.34
2022-08-05T07:44:18.718Z,101761.91
2022-08-05T07:46:50.495Z,101751.53
2022-08-05T07:49:19.728Z,101766.09
2022-08-05T07:51:52.944Z,101785.47
2022-08-05T07:54:31.267Z,101778.31
2022-08-05T07:57:41.997Z,101766.22
2022-08-05T07:59:51.178Z,101798.41
2022-08-05T08:02:30.891Z,101801.88
2022-08-05T08:05:15.269Z,101797.00
2022-08-05T08:07:59.603Z,101777.09
2022-08-05T08:10:30.282Z,101800.66
2022-08-05T08:12:59.051Z,101770.69
2022-08-05T08:16:33.605Z,101800.06
2022-08-05T08:18:20.853Z,101776.09
2022-08-05T08:21:02.963Z,101805.53
2022-08-05T08:24:02.637Z,101791.72
2022-08-05T08:26:26.558Z,101779.66
2022-08-05T08:28:59.836Z,101795.19
2022-08-05T08:31:44.075Z,101797.19
2022-08-05T08:34:14.492Z,101796.16
2022-08-05T08:36:48.810Z,101814.25
2022-08-05T08:39:19.208Z,101815.88
2022-08-05T08:41:59.442Z,101825.69
2022-08-05T08:45:22.624Z,101823.31
2022-08-05T08:48:06.915Z,101818.00
2022-08-05T08:50:31.618Z,101822.00
2022-08-05T08:53:11.914Z,101822.63
2022-08-05T08:56:04.510Z,101813.34
2022-08-05T08:58:43.839Z,101803.25
2022-08-05T09:01:18.074Z,101844.91
2022-08-05T09:03:54.306Z,101836.06
2022-08-05T09:06:29.387Z,101841.41
2022-08-05T09:09:01.397Z,101847.13
2022-08-05T09:11:50.706Z,101855.97
2022-08-05T09:14:57.544Z,101850.59
2022-08-05T09:17:11.550Z,101846.19
2022-08-05T09:20:02.378Z,101857.53
2022-08-05T09:23:09.050Z,101873.06
2022-08-05T09:26:00.066Z,101867.25
2022-08-05T09:28:31.959Z,101870.91
2022-08-05T09:31:22.969Z,101878.94
2022-08-05T09:33:56.682Z,101872.69
2022-08-05T09:36:27.823Z,101858.63
2022-08-05T09:39:18.049Z,101883.50
2022-08-05T09:42:01.409Z,101854.94
2022-08-05T09:44:39.445Z,101882.03
2022-08-05T09:47:12.616Z,101848.16
2022-08-05T09:50:01.027Z,101872.22
2022-08-05T09:52:33.798Z,101882.44
2022-08-05T09:55:06.355Z,101876.59
2022-08-05T09:57:58.834Z,101882.41
2022-08-05T10:00:30.639Z,101880.38
2022-08-05T10:02:59.440Z,101874.59
2022-08-05T10:05:32.999Z,101908.19
2022-08-05T10:08:35.353Z,101900.69
2022-08-05T10:10:55.011Z,101898.03
2022-08-05T10:13:48.047Z,101888.31
2022-08-05T10:16:34.367Z,101931.19
2022-08-05T10:19:11.745Z,101929.56
2022-08-05T10:21:41.160Z,101938.47
2022-08-05T10:24:13.480Z,101929.44
2022-08-05T10:26:51.244Z,101940.59
2022-08-05T10:29:24.090Z,101921.44
2022-08-05T10:33:01.561Z,101938.56
2022-08-05T10:35:01.404Z,101946.31
2022-08-05T10:37:40.498Z,101928.09
2022-08-05T10:40:28.303Z,101961.69
2022-08-05T10:43:11.115Z,101958.44
2022-08-05T10:45:42.028Z,101957.13
2022-08-05T10:48:52.933Z,101954.41
2022-08-05T10:51:29.325Z,101955.22
2022-08-05T10:54:01.763Z,101952.63
2022-08-05T10:56:47.139Z,101943.00
2022-08-05T11:00:02.450Z,101975.56
2022-08-05T11:02:37.571Z,101982.88
2022-08-05T11:05:07.604Z,101981.75
2022-08-05T11:08:02.438Z,101967.09
2022-08-05T11:10:37.266Z,101987.78
2022-08-05T11:13:08.703Z,101955.97
2022-08-05T11:16:00.576Z,101980.53
2022-08-05T11:18:34.087Z,101975.56
2022-08-05T11:21:11.284Z,101993.06
2022-08-05T11:24:02.502Z,101984.50
2022-08-05T11:26:34.458Z,101998.94
2022-08-05T11:29:13.116Z,102011.66
2022-08-05T11:31:54.449Z,101998.47
2022-08-05T11:34:51.479Z,101991.06
2022-08-05T11:38:26.679Z,102019.09
2022-08-05T11:41:34.545Z,101953.56
2022-08-05T11:44:04.623Z,101993.41
2022-08-05T11:47:09.807Z,102019.16
2022-08-05T11:49:28.468Z,102022.09
2022-08-05T11:51:57.917Z,102028.19
2022-08-05T11:54:33.931Z,102023.22
2022-08-05T11:57:08.270Z,102021.50
2022-08-05T11:59:55.852Z,102000.97
2022-08-05T12:02:33.167Z,102011.88
2022-08-05T12:05:07.514Z,102017.19
2022-08-05T12:08:09.334Z,102008.94
2022-08-05T12:10:43.652Z,102023.22
2022-08-05T12:13:47.456Z,102015.19
2022-08-05T12:16:14.469Z,102035.69
2022-08-05T12:18:49.489Z,102013.09
2022-08-05T12:21:26.987Z,102022.22
2022-08-05T12:24:04.972Z,102036.41
2022-08-05T12:26:35.425Z,102041.63
2022-08-05T12:29:09.454Z,102018.81
2022-08-05T12:31:50.216Z,102042.97
2022-08-05T12:34:28.199Z,102042.88
2022-08-05T12:37:00.964Z,102020.97
2022-08-05T12:39:37.364Z,102043.97
2022-08-05T12:42:14.278Z,102051.97
2022-08-05T12:44:45.993Z,102047.72
2022-08-05T12:47:30.634Z,102028.38
2022-08-05T12:50:03.388Z,102054.06
2022-08-05T12:52:39.315Z,102049.69
2022-08-05T12:55:23.826Z,102055.16
2022-08-05T12:58:50.869Z,102045.16
2022-08-05T13:02:00.418Z,102076.06
2022-08-05T13:03:39.068Z,102077.03
2022-08-05T13:06:17.366Z,102083.16
2022-08-05T13:08:51.942Z,102081.69
2022-08-05T13:12:02.315Z,102082.88
2022-08-05T13:14:24.931Z,102066.66
2022-08-05T13:17:10.853Z,102052.16
2022-08-05T13:19:52.196Z,102073.31
2022-08-05T13:22:28.288Z,102089.38
2022-08-05T13:25:05.462Z,102094.72
2022-08-05T13:27:39.787Z,102095.94
2022-08-05T13:30:34.318Z,102093.53
2022-08-05T13:33:00.962Z,102101.78
2022-08-05T13:35:43.269Z,102104.00
2022-08-05T13:38:28.182Z,102086.53
2022-08-05T13:41:03.928Z,102104.88
2022-08-05T13:43:44.130Z,102097.56
2022-08-05T13:46:43.725Z,102093.91
2022-08-05T13:49:11.450Z,102095.50
2022-08-05T13:51:46.035Z,102105.72
2022-08-05T13:54:21.250Z,102109.03
2022-08-05T13:56:54.977Z,102117.13
2022-08-05T13:59:26.836Z,102104.44
2022-08-05T14:01:56.564Z,102110.78
2022-08-05T14:04:50.583Z,102123.78
2022-08-05T14:08:00.498Z,102133.25
2022-08-05T14:10:19.236Z,102111.91
2022-08-05T14:12:58.335Z,102125.41
2022-08-05T14:16:04.602Z,102140.44
2022-08-05T14:18:18.625Z,102143.22
2022-08-05T14:20:55.016Z,102135.31
2022-08-05T14:23:26.925Z,102133.78
2022-08-05T14:25:59.458Z,102136.75
2022-08-05T14:28:30.662Z,102154.56
2022-08-05T14:31:00.630Z,102139.91
2022-08-05T14:33:57.003Z,102151.47
2022-08-05T14:36:21.670Z,102161.19
2022-08-05T14:38:51.215Z,102138.63
2022-08-05T14:41:20.044Z,102134.28
2022-08-05T14:43:59.434Z,102158.03
2022-08-05T14:46:35.011Z,102163.16
2022-08-05T14:49:08.175Z,102144.44
2022-08-05T14:51:38.161Z,102165.84
2022-08-05T14:54:28.717Z,102171.22
2022-08-05T14:56:56.268Z,102170.28
2022-08-05T14:59:29.504Z,102186.31
2022-08-05T15:01:58.848Z,102154.56
2022-08-05T15:04:28.976Z,102164.13
2022-08-05T15:06:58.206Z,102181.06
2022-08-05T15:09:54.278Z,102179.28
2022-08-05T15:12:16.851Z,102181.50
2022-08-05T15:14:49.882Z,102189.66
2022-08-05T15:17:46.123Z,102173.44
2022-08-05T15:20:17.095Z,102181.63
2022-08-05T15:22:54.330Z,102183.06
2022-08-05T15:25:51.667Z,102202.13
2022-08-05T15:28:14.679Z,102192.94
2022-08-05T15:30:46.645Z,102194.38
2022-08-05T15:33:56.807Z,102184.72
2022-08-05T15:36:17.537Z,102201.41
2022-08-05T15:40:58.612Z,102193.41
2022-08-05T15:41:56.171Z,102204.50
2022-08-05T15:44:28.022Z,102205.47
2022-08-05T15:47:03.703Z,102208.25
2022-08-05T15:49:52.001Z,102193.34
2022-08-05T15:52:51.646Z,102205.97
2022-08-05T15:55:15.586Z,102201.59
2022-08-05T15:57:45.979Z,102232.84
2022-08-05T16:00:25.761Z,102187.97
2022-08-05T16:03:02.576Z,102228.66
2022-08-05T16:05:31.448Z,102232.13
2022-08-05T16:08:00.187Z,102228.47
2022-08-05T16:10:28.636Z,102233.47
2022-08-05T16:12:57.628Z,102241.50
2022-08-05T16:15:32.756Z,102243.03
2022-08-05T16:18:04.391Z,102229.19
2022-08-05T16:20:37.701Z,102229.28
2022-08-05T16:23:08.511Z,102246.66
2022-08-05T16:25:37.729Z,102245.09
2022-08-05T16:28:09.686Z,102230.38
2022-08-05T16:30:39.484Z,102250.78
2022-08-05T16:33:11.284Z,102257.91
2022-08-05T16:35:42.934Z,102260.47
2022-08-05T16:38:24.654Z,102263.31
2022-08-05T16:41:00.088Z,102252.75
2022-08-05T16:43:32.534Z,102262.56
2022-08-05T16:46:23.971Z,102270.50
2022-08-05T16:48:52.851Z,102259.81
2022-08-05T16:51:21.593Z,102264.19
2022-08-05T16:54:02.777Z,102282.94
2022-08-05T16:56:37.069Z,102265.28
2022-08-05T16:59:10.305Z,102278.50
2022-08-05T17:01:53.614Z,102289.88
2022-08-05T17:04:27.178Z,102288.28
2022-08-05T17:07:01.129Z,102292.75
2022-08-05T17:09:38.995Z,102299.69
2022-08-05T17:12:22.356Z,102228.16
2022-08-05T17:14:51.414Z,102277.91
2022-08-05T17:17:20.017Z,102311.59
2022-08-05T17:19:55.850Z,102300.09
2022-08-05T17:22:26.043Z,102295.63
2022-08-05T17:24:57.553Z,102316.88
2022-08-05T17:27:33.599Z,102316.06
2022-08-05T17:30:07.045Z,102296.66
2022-08-05T17:32:42.167Z,102325.81
2022-08-05T17:35:15.616Z,102302.91
2022-08-05T17:37:45.482Z,102325.03
2022-08-05T17:40:22.278Z,102316.19
2022-08-05T17:42:53.101Z,102332.13
2022-08-05T17:45:24.924Z,102333.88
2022-08-05T17:47:56.375Z,102317.00
2022-08-05T17:50:30.436Z,102317.09
2022-08-05T17:53:01.539Z,102332.13
2022-08-05T17:55:37.735Z,102354.31
2022-08-05T17:58:11.303Z,102351.66
2022-08-05T18:00:45.396Z,102348.13
2022-08-05T18:03:48.384Z,102337.53
2022-08-05T18:06:11.090Z,102341.94
2022-08-05T18:08:44.937Z,102332.19
2022-08-05T18:11:23.292Z,102374.72
2022-08-05T18:13:55.380Z,102364.94
2022-08-05T18:16:24.299Z,102374.66
2022-08-05T18:18:52.711Z,102387.03
2022-08-05T18:21:22.989Z,102385.22
2022-08-05T18:23:55.028Z,102389.66
2022-08-05T18:26:27.752Z,102390.53
2022-08-05T18:28:58.632Z,102395.88
2022-08-05T18:31:33.823Z,102370.09
2022-08-05T18:34:06.101Z,102379.84
2022-08-05T18:36:36.454Z,102392.25
2022-08-05T18:39:09.587Z,102385.97
2022-08-05T18:42:00.701Z,102399.16
2022-08-05T18:44:35.225Z,102403.72
2022-08-05T18:47:16.207Z,102400.19
2022-08-05T18:50:01.996Z,102395.69
2022-08-05T18:52:35.845Z,102411.63
2022-08-05T18:55:10.381Z,102400.84
2022-08-05T18:57:49.908Z,102400.06
2022-08-05T19:00:26.975Z,102412.41
2022-08-05T19:03:03.663Z,102415.94
2022-08-05T19:06:12.512Z,102396.44
2022-08-05T19:08:30.562Z,102421.22
2022-08-05T19:11:04.708Z,102402.59
2022-08-05T19:13:36.835Z,102417.59
2022-08-05T19:16:24.398Z,102421.97
2022-08-05T19:18:54.019Z,102423.72
2022-08-05T19:21:27.392Z,102406.84
2022-08-05T19:24:07.724Z,102437.81
2022-08-05T19:26:54.221Z,102414.56
2022-08-05T19:29:26.635Z,102411.94
2022-08-05T19:32:05.004Z,102403.84
2022-08-05T19:34:35.041Z,102433.97
2022-08-05T19:37:03.817Z,102454.31
2022-08-05T19:39:45.485Z,102450.69
2022-08-05T19:42:35.371Z,102420.41
2022-08-05T19:45:06.530Z,102435.34
2022-08-05T19:47:37.390Z,102435.41
2022-08-05T19:50:07.844Z,102453.94
2022-08-05T19:52:40.991Z,102468.00
2022-08-05T19:56:15.639Z,102465.25
2022-08-05T19:58:19.499Z,102476.78
2022-08-05T20:00:48.820Z,102456.19
2022-08-05T20:03:17.288Z,102485.41
2022-08-05T20:05:51.452Z,102485.50
2022-08-05T20:08:20.689Z,102472.91
2022-08-05T20:10:55.195Z,102493.22
2022-08-05T20:13:54.534Z,102491.59
2022-08-05T20:16:12.201Z,102494.13
2022-08-05T20:18:41.026Z,102464.72
2022-08-05T20:21:10.426Z,102492.28
2022-08-05T20:23:50.293Z,102462.97
2022-08-05T20:26:23.427Z,102486.88
2022-08-05T20:28:55.717Z,102500.84
2022-08-05T20:31:28.776Z,102502.56
2022-08-05T20:34:05.616Z,102518.44
2022-08-05T20:36:36.906Z,102523.84
2022-08-05T20:39:07.705Z,102509.44
2022-08-05T20:41:45.084Z,102530.03
2022-08-05T20:44:16.900Z,102528.00
2022-08-05T20:46:46.923Z,102524.53
2022-08-05T20:49:18.455Z,102506.47
2022-08-05T20:51:53.397Z,102531.28
2022-08-05T20:54:22.560Z,102507.28
2022-08-05T20:56:54.627Z,102534.66
2022-08-05T20:59:26.418Z,102540.94
2022-08-05T21:01:58.071Z,102514.19
2022-08-05T21:04:28.077Z,102499.25
2022-08-05T21:06:57.503Z,102533.03
2022-08-05T21:09:26.484Z,102518.75
2022-08-05T21:12:09.701Z,102526.66
2022-08-05T21:14:40.007Z,102522.09
2022-08-05T21:17:08.424Z,102538.00
2022-08-05T21:19:46.849Z,102550.53
2022-08-05T21:22:17.805Z,102555.63
2022-08-05T21:24:51.513Z,102544.81
2022-08-05T21:27:25.232Z,102557.22
2022-08-05T21:29:56.427Z,102540.03
2022-08-05T21:32:27.231Z,102537.28
2022-08-05T21:35:08.974Z,102561.13
2022-08-05T21:37:47.185Z,102556.69
2022-08-05T21:40:16.756Z,102561.94
2022-08-05T21:42:47.406Z,102551.22
2022-08-05T21:45:24.967Z,102541.28
2022-08-05T21:47:57.894Z,102569.88
2022-08-05T21:50:26.880Z,102573.28
2022-08-05T21:52:58.785Z,102550.06
2022-08-05T21:56:01.061Z,102577.47
2022-08-05T21:58:24.853Z,102543.34
2022-08-05T22:01:00.871Z,102559.31
2022-08-05T22:03:51.620Z,102573.63
2022-08-05T22:06:22.749Z,102579.72
2022-08-05T22:09:13.160Z,102564.28
2022-08-05T22:11:42.737Z,102575.78
2022-08-05T22:14:35.161Z,102581.75
2022-08-05T22:17:05.053Z,102594.34
2022-08-05T22:20:00.724Z,102596.84
2022-08-05T22:22:27.959Z,102599.38
2022-08-05T22:25:18.172Z,102579.84
2022-08-05T22:28:10.722Z,102564.69
2022-08-05T22:30:44.230Z,102584.16
2022-08-05T22:33:57.849Z,102543.28
2022-08-05T22:36:15.577Z,102601.63
2022-08-05T22:38:47.945Z,102573.88
2022-08-05T22:42:05.711Z,102573.97
2022-08-05T22:44:09.382Z,102579.06
2022-08-05T22:46:42.424Z,102609.06
2022-08-05T22:50:17.672Z,102615.44
2022-08-05T22:52:07.633Z,102620.53
2022-08-05T22:54:48.960Z,102625.81
2022-08-05T22:57:17.526Z,102623.97
2022-08-05T22:59:51.924Z,102602.84
2022-08-05T23:02:29.463Z,102619.63
2022-08-05T23:05:01.985Z,102623.09
2022-08-05T23:07:43.787Z,102625.69
2022-08-05T23:10:14.328Z,102605.81
2022-08-05T23:12:43.994Z,102618.09
2022-08-05T23:15:13.182Z,102632.38
2022-08-05T23:18:01.402Z,102635.97
2022-08-05T23:20:32.480Z,102611.75
2022-08-05T23:23:06.025Z,102614.22
2022-08-05T23:25:54.723Z,102584.72
2022-08-05T23:28:28.545Z,102624.81
2022-08-05T23:31:03.707Z,102643.47
2022-08-05T23:34:03.191Z,102645.03
2022-08-05T23:36:39.710Z,102622.72
2022-08-05T23:39:17.080Z,102652.16
2022-08-05T23:41:52.434Z,102626.28
2022-08-05T23:44:24.980Z,102630.56
2022-08-05T23:46:56.176Z,102626.53
2022-08-05T23:49:35.702Z,102658.72
2022-08-05T23:52:25.277Z,102664.84
2022-08-05T23:54:54.904Z,102673.44
2022-08-05T23:57:28.017Z,102670.56
